createdAt,value
2022-09-11T00:01:44.060Z,95454.09
2022-09-11T00:04:12.655Z,95427.97
2022-09-11T00:06:41.085Z,95455.69
2022-09-11T00:09:09.759Z,95454.28
2022-09-11T00:11:41.716Z,95462.41
2022-09-11T00:14:11.898Z,95461.13
2022-09-11T00:16:45.199Z,95424.97
2022-09-11T00:19:15.895Z,95464.03
2022-09-11T00:21:45.544Z,95464.31
2022-09-11T00:24:14.730Z,95439.22
2022-09-11T00:26:43.651Z,95461.13
2022-09-11T00:29:12.576Z,95460.31
2022-09-11T00:31:42.414Z,95463.34
2022-09-11T00:34:10.970Z,95427.56
2022-09-11T00:36:41.700Z,95443.00
2022-09-11T00:39:12.612Z,95464.53
2022-09-11T00:41:42.654Z,95471.53
2022-09-11T00:44:45.616Z,95472.66
2022-09-11T00:47:19.327Z,95467.00
2022-09-11T00:49:48.921Z,95465.69
2022-09-11T00:52:21.188Z,95465.91
2022-09-11T00:54:56.623Z,95466.50
2022-09-11T00:57:27.996Z,95425.75
2022-09-11T00:59:58.677Z,95467.50
2022-09-11T01:02:31.748Z,95438.00
2022-09-11T01:05:00.155Z,95465.91
2022-09-11T01:07:30.577Z,95477.31
2022-09-11T01:10:00.611Z,95471.09
2022-09-11T01:12:36.728Z,95472.72
2022-09-11T01:15:08.294Z,95440.97
2022-09-11T01:17:49.447Z,95473.53
2022-09-11T01:20:26.935Z,95473.03
2022-09-11T01:23:24.799Z,95474.13
2022-09-11T01:26:10.364Z,95466.59
2022-09-11T01:28:46.767Z,95469.31
2022-09-11T01:31:21.460Z,95474.13
2022-09-11T01:33:56.572Z,95469.31
2022-09-11T01:36:31.544Z,95473.91
2022-09-11T01:39:00.089Z,95473.31
2022-09-11T01:41:33.129Z,95474.31
2022-09-11T01:44:07.531Z,95470.50
2022-09-11T01:46:41.479Z,95486.16
2022-09-11T01:49:16.768Z,95452.41
2022-09-11T01:51:45.316Z,95487.78
2022-09-11T01:54:18.875Z,95487.19
2022-09-11T01:56:51.844Z,95487.56
2022-09-11T01:59:28.090Z,95491.78
2022-09-11T02:02:06.917Z,95492.88
2022-09-11T02:04:40.399Z,95503.44
2022-09-11T02:07:13.121Z,95496.41
2022-09-11T02:09:46.468Z,95499.09
2022-09-11T02:12:17.581Z,95495.38
2022-09-11T02:14:49.651Z,95494.78
2022-09-11T02:17:25.943Z,95487.19
2022-09-11T02:19:56.308Z,95495.00
2022-09-11T02:22:25.216Z,95492.00
2022-09-11T02:24:53.884Z,95488.16
2022-09-11T02:27:25.947Z,95493.31
2022-09-11T02:29:56.643Z,95499.53
2022-09-11T02:32:26.423Z,95494.59
2022-09-11T02:34:56.681Z,95498.41
2022-09-11T02:37:40.155Z,95492.59
2022-09-11T02:40:39.111Z,95506.03
2022-09-11T02:43:26.483Z,95507.66
2022-09-11T02:46:07.585Z,95507.13
2022-09-11T02:48:52.659Z,95505.63
2022-09-11T02:51:29.975Z,95513.84
2022-09-11T02:54:07.654Z,95510.88
2022-09-11T02:56:43.918Z,95488.03
2022-09-11T02:59:19.252Z,95522.91
2022-09-11T03:01:53.960Z,95521.81
2022-09-11T03:04:24.621Z,95519.88
2022-09-11T03:06:54.084Z,95526.09
2022-09-11T03:09:22.567Z,95484.31
2022-09-11T03:11:50.920Z,95522.91
2022-09-11T03:14:19.748Z,95525.38
2022-09-11T03:16:50.325Z,95507.59
2022-09-11T03:19:18.596Z,95537.13
2022-09-11T03:21:46.843Z,95532.00
2022-09-11T03:24:15.914Z,95535.50
2022-09-11T03:26:44.584Z,95531.19
2022-09-11T03:29:13.765Z,95522.22
2022-09-11T03:31:42.427Z,95535.50
2022-09-11T03:34:12.261Z,95449.22
2022-09-11T03:36:40.943Z,95496.13
2022-09-11T03:39:09.285Z,95531.50
2022-09-11T03:41:37.611Z,95536.13
2022-09-11T03:44:06.088Z,95537.72
2022-09-11T03:46:35.220Z,95541.53
2022-09-11T03:49:03.665Z,95546.94
2022-09-11T03:51:33.515Z,95534.50
2022-09-11T03:54:02.509Z,95540.50
2022-09-11T03:56:31.161Z,95547.63
2022-09-11T03:59:01.395Z,95553.56
2022-09-11T04:01:31.212Z,95551.94
2022-09-11T04:03:59.631Z,95556.56
2022-09-11T04:06:27.941Z,95556.56
2022-09-11T04:08:57.738Z,95558.16
2022-09-11T04:11:26.039Z,95551.94
2022-09-11T04:13:54.846Z,95558.97
2022-09-11T04:16:23.331Z,95557.06
2022-09-11T04:18:53.657Z,95569.81
2022-09-11T04:21:21.959Z,95567.59
2022-09-11T04:23:53.506Z,95550.50
2022-09-11T04:26:25.380Z,95568.63
2022-09-11T04:28:54.079Z,95577.84
2022-09-11T04:31:23.491Z,95566.00
2022-09-11T04:33:55.845Z,95570.25
2022-09-11T04:36:27.268Z,95572.41
2022-09-11T04:38:57.984Z,95572.41
2022-09-11T04:41:29.069Z,95577.84
2022-09-11T04:44:03.867Z,95586.78
2022-09-11T04:46:33.559Z,95569.81
2022-09-11T04:49:02.431Z,95581.56
2022-09-11T04:51:32.526Z,95584.28
2022-09-11T04:54:02.149Z,95574.81
2022-09-11T04:56:34.413Z,95593.50
2022-09-11T04:59:05.640Z,95587.38
2022-09-11T05:01:35.812Z,95600.09
2022-09-11T05:04:04.919Z,95599.59
2022-09-11T05:06:34.177Z,95599.91
2022-09-11T05:09:04.512Z,95603.47
2022-09-11T05:11:35.549Z,95604.88
2022-09-11T05:14:04.446Z,95608.41
2022-09-11T05:16:34.703Z,95602.53
2022-09-11T05:19:05.280Z,95582.06
2022-09-11T05:21:34.139Z,95609.94
2022-09-11T05:24:03.905Z,95618.56
2022-09-11T05:26:35.912Z,95609.13
2022-09-11T05:29:07.420Z,95618.34
2022-09-11T05:31:37.333Z,95620.53
2022-09-11T05:34:07.070Z,95622.16
2022-09-11T05:36:36.384Z,95623.97
2022-09-11T05:39:05.540Z,95616.63
2022-09-11T05:41:35.295Z,95627.19
2022-09-11T05:44:04.261Z,95629.31
2022-09-11T05:46:32.668Z,95639.06
2022-09-11T05:49:01.243Z,95637.44
2022-09-11T05:51:29.916Z,95642.84
2022-09-11T05:53:58.820Z,95642.25
2022-09-11T05:56:28.393Z,95645.50
2022-09-11T05:58:58.956Z,95645.50
2022-09-11T06:01:29.112Z,95649.31
2022-09-11T06:03:58.352Z,95661.16
2022-09-11T06:06:27.038Z,95643.38
2022-09-11T06:08:56.143Z,95661.09
2022-09-11T06:11:24.452Z,95663.28
2022-09-11T06:13:52.779Z,95661.38
2022-09-11T06:16:25.280Z,95664.06
2022-09-11T06:18:54.912Z,95668.19
2022-09-11T06:21:27.336Z,95575.72
2022-09-11T06:23:55.829Z,95639.22
2022-09-11T06:26:25.855Z,95665.41
2022-09-11T06:28:54.760Z,95682.41
2022-09-11T06:31:27.062Z,95681.28
2022-09-11T06:33:55.799Z,95680.50
2022-09-11T06:36:27.055Z,95587.09
2022-09-11T06:38:56.980Z,95689.13
2022-09-11T06:41:27.200Z,95690.75
2022-09-11T06:43:55.773Z,95697.75
2022-09-11T06:46:27.090Z,95691.69
2022-09-11T06:48:57.774Z,95705.06
2022-09-11T06:51:27.297Z,95676.69
2022-09-11T06:53:58.263Z,95710.63
2022-09-11T06:56:26.768Z,95716.50
2022-09-11T06:58:55.192Z,95689.84
2022-09-11T07:01:25.073Z,95715.84
2022-09-11T07:03:55.387Z,95718.75
2022-09-11T07:06:25.558Z,95699.66
2022-09-11T07:08:57.253Z,95687.69
2022-09-11T07:11:25.666Z,95711.19
2022-09-11T07:13:54.285Z,95712.72
2022-09-11T07:16:22.707Z,95697.63
2022-09-11T07:18:52.839Z,95709.91
2022-09-11T07:21:23.110Z,95716.16
2022-09-11T07:23:54.699Z,95725.59
2022-09-11T07:26:24.600Z,95720.19
2022-09-11T07:28:53.285Z,95706.19
2022-09-11T07:31:23.257Z,95733.22
2022-09-11T07:33:55.056Z,95726.63
2022-09-11T07:36:25.764Z,95660.13
2022-09-11T07:38:56.000Z,95736.25
2022-09-11T07:41:25.806Z,95743.63
2022-09-11T07:43:55.535Z,95744.34
2022-09-11T07:46:25.353Z,95743.66
2022-09-11T07:48:56.452Z,95747.97
2022-09-11T07:51:26.738Z,95746.97
2022-09-11T07:53:58.125Z,95700.97
2022-09-11T07:56:27.840Z,95749.38
2022-09-11T07:58:57.511Z,95747.97
2022-09-11T08:01:29.963Z,95755.81
2022-09-11T08:04:01.889Z,95753.91
2022-09-11T08:06:32.639Z,95730.94
2022-09-11T08:09:02.567Z,95765.56
2022-09-11T08:11:36.219Z,95770.56
2022-09-11T08:14:04.245Z,95773.44
2022-09-11T08:16:32.934Z,95769.25
2022-09-11T08:19:03.347Z,95778.91
2022-09-11T08:21:31.755Z,95776.69
2022-09-11T08:24:01.137Z,95784.78
2022-09-11T08:26:31.387Z,95780.34
2022-09-11T08:29:00.985Z,95791.03
2022-09-11T08:31:30.205Z,95798.50
2022-09-11T08:33:59.127Z,95793.88
2022-09-11T08:36:29.796Z,95788.25
2022-09-11T08:39:00.374Z,95786.84
2022-09-11T08:41:42.580Z,95806.97
2022-09-11T08:44:19.963Z,95804.84
2022-09-11T08:46:51.407Z,95813.00
2022-09-11T08:49:26.052Z,95814.03
2022-09-11T08:52:00.330Z,95813.84
2022-09-11T08:54:33.660Z,95803.56
2022-09-11T08:57:17.034Z,95819.41
2022-09-11T09:00:05.751Z,95819.72
2022-09-11T09:03:02.986Z,95815.28
2022-09-11T09:05:42.820Z,95783.69
2022-09-11T09:08:28.977Z,95820.44
2022-09-11T09:11:05.328Z,95813.53
2022-09-11T09:14:05.988Z,95816.94
2022-09-11T09:16:49.359Z,95821.19
2022-09-11T09:19:21.760Z,95821.78
2022-09-11T09:22:07.485Z,95822.56
2022-09-11T09:24:43.916Z,95823.19
2022-09-11T09:27:21.623Z,95786.75
2022-09-11T09:29:54.847Z,95773.06
2022-09-11T09:32:27.308Z,95821.28
2022-09-11T09:35:02.281Z,95826.41
2022-09-11T09:37:31.071Z,95823.41
2022-09-11T09:40:02.669Z,95828.72
2022-09-11T09:42:55.903Z,95824.78
2022-09-11T09:45:40.365Z,95827.38
2022-09-11T09:48:13.392Z,95815.41
2022-09-11T09:50:44.178Z,95824.75
2022-09-11T09:53:22.510Z,95808.34
2022-09-11T09:55:54.533Z,95830.50
2022-09-11T09:58:27.491Z,95782.41
2022-09-11T10:00:56.885Z,95839.03
2022-09-11T10:03:26.854Z,95843.84
2022-09-11T10:05:56.790Z,95849.13
2022-09-11T10:08:33.935Z,95842.47
2022-09-11T10:11:05.976Z,95846.25
2022-09-11T10:13:36.348Z,95852.44
2022-09-11T10:16:06.690Z,95850.59
2022-09-11T10:18:44.154Z,95838.97
2022-09-11T10:21:29.767Z,95849.66
2022-09-11T10:24:00.627Z,95847.47
2022-09-11T10:26:35.813Z,95843.66
2022-09-11T10:29:10.068Z,95818.53
2022-09-11T10:31:43.063Z,95797.97
2022-09-11T10:34:17.368Z,95843.56
2022-09-11T10:36:55.456Z,95844.53
2022-09-11T10:39:27.938Z,95846.97
2022-09-11T10:42:00.628Z,95844.81
2022-09-11T10:44:30.989Z,95851.25
2022-09-11T10:47:07.205Z,95853.03
2022-09-11T10:49:36.390Z,95832.81
2022-09-11T10:52:22.582Z,95821.19
2022-09-11T10:55:00.966Z,95851.34
2022-09-11T10:57:36.648Z,95849.13
2022-09-11T11:00:13.561Z,95850.38
2022-09-11T11:02:45.383Z,95860.53
2022-09-11T11:05:21.995Z,95856.63
2022-09-11T11:08:12.335Z,95861.41
2022-09-11T11:11:00.706Z,95863.78
2022-09-11T11:13:45.376Z,95867.13
2022-09-11T11:16:21.591Z,95871.56
2022-09-11T11:19:12.996Z,95873.78
2022-09-11T11:21:56.351Z,95852.28
2022-09-11T11:24:42.682Z,95873.31
2022-09-11T11:27:36.844Z,95884.59
2022-09-11T11:30:15.954Z,95875.47
2022-09-11T11:33:05.259Z,95852.91
2022-09-11T11:35:41.964Z,95873.22
2022-09-11T11:38:15.511Z,95869.56
2022-09-11T11:40:47.991Z,95880.97
2022-09-11T11:43:19.009Z,95871.50
2022-09-11T11:45:52.515Z,95867.19
2022-09-11T11:48:28.795Z,95876.22
2022-09-11T11:51:01.048Z,95876.84
2022-09-11T11:53:34.383Z,95840.31
2022-09-11T11:56:10.268Z,95831.75
2022-09-11T11:58:49.660Z,95866.56
2022-09-11T12:01:25.713Z,95862.84
2022-09-11T12:04:02.848Z,95808.22
2022-09-11T12:06:31.511Z,95871.44
2022-09-11T12:09:00.280Z,95870.25
2022-09-11T12:11:32.386Z,95853.41
2022-09-11T12:14:01.672Z,95865.03
2022-09-11T12:16:34.909Z,95864.47
2022-09-11T12:19:07.839Z,95868.38
2022-09-11T12:21:58.075Z,95872.25
2022-09-11T12:24:52.608Z,95864.53
2022-09-11T12:27:50.086Z,95864.53
2022-09-11T12:30:24.451Z,95860.69
2022-09-11T12:32:55.232Z,95844.50
2022-09-11T12:35:29.227Z,95863.63
2022-09-11T12:38:03.274Z,95858.38
2022-09-11T12:40:40.399Z,95861.28
2022-09-11T12:43:34.005Z,95857.41
2022-09-11T12:46:02.944Z,95853.75
2022-09-11T12:48:39.892Z,95823.06
2022-09-11T12:51:23.760Z,95849.56
2022-09-11T12:53:53.734Z,95853.25
2022-09-11T12:56:24.284Z,95856.94
2022-09-11T12:58:57.164Z,95852.44
2022-09-11T13:01:30.813Z,95855.31
2022-09-11T13:04:04.740Z,95856.44
2022-09-11T13:06:43.195Z,95859.16
2022-09-11T13:09:21.507Z,95841.97
2022-09-11T13:11:52.239Z,95854.06
2022-09-11T13:14:47.774Z,95861.13
2022-09-11T13:17:26.853Z,95856.44
2022-09-11T13:20:10.896Z,95860.63
2022-09-11T13:22:39.832Z,95858.84
2022-09-11T13:25:14.527Z,95857.25
2022-09-11T13:27:45.745Z,95858.38
2022-09-11T13:30:16.151Z,95858.69
2022-09-11T13:32:47.411Z,95858.22
2022-09-11T13:35:20.088Z,95854.03
2022-09-11T13:37:57.553Z,95860.97
2022-09-11T13:40:30.521Z,95865.00
2022-09-11T13:43:00.806Z,95857.59
2022-09-11T13:45:29.758Z,95855.81
2022-09-11T13:47:58.544Z,95846.78
2022-09-11T13:50:28.668Z,95850.19
2022-09-11T13:52:57.207Z,95848.88
2022-09-11T13:55:28.166Z,95852.75
2022-09-11T13:57:59.367Z,95851.47
2022-09-11T14:00:47.385Z,95850.03
2022-09-11T14:03:28.145Z,95860.63
2022-09-11T14:06:00.712Z,95847.31
2022-09-11T14:08:34.943Z,95857.72
2022-09-11T14:11:11.254Z,95858.22
2022-09-11T14:13:46.550Z,95854.72
2022-09-11T14:16:25.509Z,95855.66
2022-09-11T14:19:00.362Z,95857.91
2022-09-11T14:21:38.489Z,95852.63
2022-09-11T14:24:26.545Z,95860.31
2022-09-11T14:26:58.411Z,95843.16
2022-09-11T14:29:29.333Z,95819.69
2022-09-11T14:32:31.313Z,95848.28
2022-09-11T14:34:59.799Z,95831.72
2022-09-11T14:37:35.236Z,95835.56
2022-09-11T14:40:07.175Z,95829.97
2022-09-11T14:42:37.902Z,95823.81
2022-09-11T14:45:10.074Z,95830.94
2022-09-11T14:47:39.224Z,95839.28
2022-09-11T14:50:12.178Z,95846.34
2022-09-11T14:52:43.127Z,95835.59
2022-09-11T14:55:16.131Z,95840.88
2022-09-11T14:57:46.832Z,95771.19
2022-09-11T15:00:16.346Z,95839.41
2022-09-11T15:02:44.792Z,95834.94
2022-09-11T15:05:16.788Z,95833.66
2022-09-11T15:07:46.656Z,95831.22
2022-09-11T15:10:15.632Z,95662.03
2022-09-11T15:12:44.667Z,95830.13
2022-09-11T15:15:13.095Z,95833.97
2022-09-11T15:17:42.039Z,95833.50
2022-09-11T15:20:11.315Z,95828.06
2022-09-11T15:22:40.136Z,95821.91
2022-09-11T15:25:10.467Z,95833.66
2022-09-11T15:27:39.120Z,95828.34
2022-09-11T15:30:08.363Z,95832.34
2022-09-11T15:32:36.776Z,95837.03
2022-09-11T15:35:05.538Z,95800.91
2022-09-11T15:37:33.964Z,95816.25
2022-09-11T15:40:02.442Z,95827.97
2022-09-11T15:42:38.838Z,95850.78
2022-09-11T15:45:09.563Z,95848.19
2022-09-11T15:47:37.946Z,95845.28
2022-09-11T15:50:07.406Z,95847.03
2022-09-11T15:52:36.516Z,95843.13
2022-09-11T15:55:06.483Z,95854.34
2022-09-11T15:57:36.947Z,95851.78
2022-09-11T16:00:06.772Z,95826.41
2022-09-11T16:02:35.109Z,95805.25
2022-09-11T16:05:03.593Z,95861.44
2022-09-11T16:07:32.009Z,95844.56
2022-09-11T16:10:00.401Z,95862.06
2022-09-11T16:12:28.801Z,95819.25
2022-09-11T16:14:58.908Z,95855.66
2022-09-11T16:17:31.342Z,95841.81
2022-09-11T16:20:00.146Z,95853.75
2022-09-11T16:22:31.491Z,95853.72
2022-09-11T16:25:00.733Z,95854.81
2022-09-11T16:27:29.911Z,95856.88
2022-09-11T16:30:32.201Z,95804.22
2022-09-11T16:32:49.055Z,95862.47
2022-09-11T16:35:19.273Z,95856.81
2022-09-11T16:37:48.594Z,95858.59
2022-09-11T16:40:17.804Z,95855.88
2022-09-11T16:42:49.300Z,95861.50
2022-09-11T16:45:19.939Z,95860.88
2022-09-11T16:47:48.377Z,95864.56
2022-09-11T16:50:17.873Z,95863.75
2022-09-11T16:52:46.299Z,95861.69
2022-09-11T16:55:15.491Z,95864.75
2022-09-11T16:57:44.891Z,95860.88
2022-09-11T17:00:14.312Z,95864.75
2022-09-11T17:02:44.095Z,95856.59
2022-09-11T17:05:12.744Z,95857.31
2022-09-11T17:07:43.272Z,95861.78
2022-09-11T17:10:12.540Z,95857.56
2022-09-11T17:12:41.058Z,95851.13
2022-09-11T17:15:10.832Z,95849.50
2022-09-11T17:17:39.300Z,95850.88
2022-09-11T17:20:12.027Z,95855.41
2022-09-11T17:22:41.063Z,95848.81
2022-09-11T17:25:10.271Z,95845.59
2022-09-11T17:27:39.087Z,95800.94
2022-09-11T17:30:08.975Z,95847.50
2022-09-11T17:32:41.193Z,95855.47
2022-09-11T17:35:12.598Z,95861.72
2022-09-11T17:37:41.369Z,95858.13
2022-09-11T17:40:11.590Z,95858.75
2022-09-11T17:42:40.637Z,95850.69
2022-09-11T17:45:11.632Z,95848.28
2022-09-11T17:47:41.500Z,95814.41
2022-09-11T17:50:12.187Z,95853.50
2022-09-11T17:52:40.477Z,95853.03
2022-09-11T17:55:09.525Z,95859.09
2022-09-11T17:57:38.064Z,95840.50
2022-09-11T18:00:07.543Z,95866.88
2022-09-11T18:02:35.883Z,95860.41
2022-09-11T18:05:04.337Z,95868.69
2022-09-11T18:07:34.284Z,95869.09
2022-09-11T18:10:03.487Z,95869.72
2022-09-11T18:12:35.493Z,95874.13
2022-09-11T18:15:04.693Z,95877.78
2022-09-11T18:17:33.478Z,95802.06
2022-09-11T18:20:03.432Z,95827.38
2022-09-11T18:22:31.961Z,95878.47
2022-09-11T18:25:01.952Z,95891.53
2022-09-11T18:27:30.327Z,95770.25
2022-09-11T18:29:59.889Z,95817.56
2022-09-11T18:32:29.952Z,95893.25
2022-09-11T18:35:00.138Z,95892.25
2022-09-11T18:37:29.019Z,95894.47
2022-09-11T18:39:59.511Z,95894.53
2022-09-11T18:42:29.999Z,95892.25
2022-09-11T18:44:59.961Z,95898.56
2022-09-11T18:47:31.045Z,95903.50
2022-09-11T18:49:59.802Z,95909.81
2022-09-11T18:52:30.948Z,95908.50
2022-09-11T18:55:00.249Z,95902.25
2022-09-11T18:57:30.519Z,95891.28
2022-09-11T19:00:00.226Z,95912.34
2022-09-11T19:02:28.936Z,95911.53
2022-09-11T19:04:57.891Z,95818.34
2022-09-11T19:07:26.966Z,95909.69
2022-09-11T19:09:55.538Z,95798.50
2022-09-11T19:12:25.009Z,95765.47
2022-09-11T19:14:55.744Z,95908.41
2022-09-11T19:17:24.110Z,95907.09
2022-09-11T19:19:52.748Z,95911.50
2022-09-11T19:22:23.008Z,95912.41
2022-09-11T19:24:55.515Z,95857.06
2022-09-11T19:27:33.461Z,95857.16
2022-09-11T19:30:19.096Z,95802.38
2022-09-11T19:32:51.053Z,95895.28
2022-09-11T19:35:19.673Z,95824.53
2022-09-11T19:37:48.794Z,95890.66
2022-09-11T19:40:17.728Z,95917.47
2022-09-11T19:42:46.812Z,95930.28
2022-09-11T19:45:18.144Z,95874.03
2022-09-11T19:47:49.268Z,95794.56
2022-09-11T19:50:22.161Z,95819.91
2022-09-11T19:53:08.951Z,95767.50
2022-09-11T19:56:00.981Z,95546.72
2022-09-11T19:58:31.802Z,95914.69
2022-09-11T20:01:06.912Z,95914.22
2022-09-11T20:03:36.339Z,95911.88
2022-09-11T20:06:05.405Z,95909.75
2022-09-11T20:08:34.978Z,95923.63
2022-09-11T20:11:05.189Z,95913.34
2022-09-11T20:13:34.155Z,95762.91
2022-09-11T20:16:06.386Z,95899.56
2022-09-11T20:18:36.619Z,95916.28
2022-09-11T20:21:07.059Z,95909.81
2022-09-11T20:23:35.844Z,95916.63
2022-09-11T20:26:16.256Z,95915.31
2022-09-11T20:28:45.844Z,95909.97
2022-09-11T20:31:18.872Z,95910.53
2022-09-11T20:33:49.664Z,95903.00
2022-09-11T20:36:19.495Z,95900.94
2022-09-11T20:38:52.468Z,95847.72
2022-09-11T20:41:23.654Z,95906.44
2022-09-11T20:43:52.835Z,95907.56
2022-09-11T20:46:24.417Z,95902.13
2022-09-11T20:48:54.460Z,95897.81
2022-09-11T20:51:24.116Z,95898.97
2022-09-11T20:53:53.018Z,95915.28
2022-09-11T20:56:24.020Z,95913.72
2022-09-11T20:58:53.807Z,95902.34
2022-09-11T21:01:25.344Z,95872.56
2022-09-11T21:03:55.642Z,95894.28
2022-09-11T21:06:26.910Z,95866.97
2022-09-11T21:08:56.876Z,95898.66
2022-09-11T21:11:26.232Z,95897.28
2022-09-11T21:13:54.800Z,95912.25
2022-09-11T21:16:25.474Z,95900.63
2022-09-11T21:18:56.217Z,95906.84
2022-09-11T21:21:26.210Z,95905.25
2022-09-11T21:23:56.500Z,95891.88
2022-09-11T21:26:26.404Z,95903.69
2022-09-11T21:28:54.755Z,95906.16
2022-09-11T21:31:24.731Z,95908.34
2022-09-11T21:33:53.338Z,95899.50
2022-09-11T21:36:22.139Z,95905.16
2022-09-11T21:38:50.523Z,95901.41
2022-09-11T21:41:18.900Z,95902.78
2022-09-11T21:43:47.834Z,95906.59
2022-09-11T21:46:16.259Z,95899.56
2022-09-11T21:48:46.456Z,95909.88
2022-09-11T21:51:16.874Z,95907.75
2022-09-11T21:53:47.116Z,95914.53
2022-09-11T21:56:20.612Z,95905.41
2022-09-11T21:58:51.241Z,95914.56
2022-09-11T22:01:20.578Z,95916.00
2022-09-11T22:03:50.707Z,95910.09
2022-09-11T22:06:20.504Z,95913.09
2022-09-11T22:08:49.115Z,95912.84
2022-09-11T22:11:18.613Z,95923.66
2022-09-11T22:13:47.926Z,95910.41
2022-09-11T22:16:18.949Z,95908.00
2022-09-11T22:18:51.344Z,95916.91
2022-09-11T22:21:20.360Z,95917.19
2022-09-11T22:23:48.805Z,95892.94
2022-09-11T22:26:19.872Z,95906.13
2022-09-11T22:28:48.428Z,95903.72
2022-09-11T22:31:18.811Z,95905.91
2022-09-11T22:33:47.286Z,95907.03
2022-09-11T22:36:19.780Z,95902.19
2022-09-11T22:38:48.728Z,95904.34
2022-09-11T22:41:17.876Z,95895.72
2022-09-11T22:43:47.646Z,95899.53
2022-09-11T22:46:16.260Z,95874.84
2022-09-11T22:48:45.143Z,95884.47
2022-09-11T22:51:13.696Z,95891.16
2022-09-11T22:53:44.008Z,95887.44
2022-09-11T22:56:13.978Z,95847.28
2022-09-11T22:58:42.419Z,95888.50
2022-09-11T23:01:14.096Z,95882.84
2022-09-11T23:03:42.593Z,95886.09
2022-09-11T23:06:29.977Z,95882.03
2022-09-11T23:09:00.599Z,95881.81
2022-09-11T23:11:29.829Z,95885.88
2022-09-11T23:13:58.820Z,95884.53
2022-09-11T23:16:30.342Z,95881.31
2022-09-11T23:19:00.580Z,95867.66
2022-09-11T23:21:29.835Z,95884.38
2022-09-11T23:24:00.834Z,95887.28
2022-09-11T23:26:30.388Z,95857.66
2022-09-11T23:28:59.765Z,95858.25
2022-09-11T23:31:30.491Z,95878.66
2022-09-11T23:34:00.434Z,95886.25
2022-09-11T23:36:30.897Z,95881.44
2022-09-11T23:39:01.341Z,95879.56
2022-09-11T23:41:32.152Z,95884.19
2022-09-11T23:44:00.914Z,95876.34
2022-09-11T23:46:29.173Z,95868.53
2022-09-11T23:48:57.860Z,95882.06
2022-09-11T23:51:27.094Z,95865.09
2022-09-11T23:53:55.603Z,95873.97
2022-09-11T23:56:25.387Z,95864.84
2022-09-11T23:58:53.710Z,95875.88
